sensor_id;sensor_type;location;lat;lon;timestamp;temperature;humidity
3330;DHT22;1677;49.576;10.990;2023-06-05T00:00:42;14.40;64.20
3330;DHT22;1677;49.576;10.990;2023-06-05T00:03:08;14.40;63.50
3330;DHT22;1677;49.576;10.990;2023-06-05T00:05:33;14.30;64.30
3330;DHT22;1677;49.576;10.990;2023-06-05T00:07:59;14.20;65.60
3330;DHT22;1677;49.576;10.990;2023-06-05T00:10:24;14.20;65.40
3330;DHT22;1677;49.576;10.990;2023-06-05T00:12:50;14.20;65.20
3330;DHT22;1677;49.576;10.990;2023-06-05T00:15:16;14.10;65.30
3330;DHT22;1677;49.576;10.990;2023-06-05T00:17:41;14.10;65.60
3330;DHT22;1677;49.576;10.990;2023-06-05T00:20:07;14.20;66.50
3330;DHT22;1677;49.576;10.990;2023-06-05T00:22:35;14.00;66.70
3330;DHT22;1677;49.576;10.990;2023-06-05T00:25:01;14.00;67.50
3330;DHT22;1677;49.576;10.990;2023-06-05T00:27:27;14.10;66.90
3330;DHT22;1677;49.576;10.990;2023-06-05T00:29:53;14.30;66.00
3330;DHT22;1677;49.576;10.990;2023-06-05T00:32:19;14.30;66.10
3330;DHT22;1677;49.576;10.990;2023-06-05T00:34:44;14.40;66.30
3330;DHT22;1677;49.576;10.990;2023-06-05T00:37:11;14.50;64.40
3330;DHT22;1677;49.576;10.990;2023-06-05T00:39:39;14.30;65.10
3330;DHT22;1677;49.576;10.990;2023-06-05T00:42:06;14.30;65.40
3330;DHT22;1677;49.576;10.990;2023-06-05T00:44:32;14.20;66.20
3330;DHT22;1677;49.576;10.990;2023-06-05T00:46:58;14.10;65.90
3330;DHT22;1677;49.576;10.990;2023-06-05T00:49:24;14.10;66.70
3330;DHT22;1677;49.576;10.990;2023-06-05T00:51:50;14.30;66.40
3330;DHT22;1677;49.576;10.990;2023-06-05T00:54:16;14.60;65.30
3330;DHT22;1677;49.576;10.990;2023-06-05T00:56:44;14.60;65.10
3330;DHT22;1677;49.576;10.990;2023-06-05T00:59:10;14.50;65.40
3330;DHT22;1677;49.576;10.990;2023-06-05T01:01:37;14.50;65.40
3330;DHT22;1677;49.576;10.990;2023-06-05T01:04:03;14.40;65.00
3330;DHT22;1677;49.576;10.990;2023-06-05T01:06:30;14.30;65.20
3330;DHT22;1677;49.576;10.990;2023-06-05T01:08:57;14.10;65.90
3330;DHT22;1677;49.576;10.990;2023-06-05T01:11:38;14.00;67.30
3330;DHT22;1677;49.576;10.990;2023-06-05T01:14:20;14.30;65.90
3330;DHT22;1677;49.576;10.990;2023-06-05T01:16:49;14.00;67.30
3330;DHT22;1677;49.576;10.990;2023-06-05T01:19:17;13.70;69.10
3330;DHT22;1677;49.576;10.990;2023-06-05T01:21:43;13.70;68.60
3330;DHT22;1677;49.576;10.990;2023-06-05T01:24:09;13.60;69.80
3330;DHT22;1677;49.576;10.990;2023-06-05T01:26:45;13.80;68.70
3330;DHT22;1677;49.576;10.990;2023-06-05T01:29:21;13.70;69.20
3330;DHT22;1677;49.576;10.990;2023-06-05T01:31:50;14.00;68.90
3330;DHT22;1677;49.576;10.990;2023-06-05T01:34:17;14.00;68.00
3330;DHT22;1677;49.576;10.990;2023-06-05T01:36:45;14.00;67.50
3330;DHT22;1677;49.576;10.990;2023-06-05T01:39:11;14.00;68.30
3330;DHT22;1677;49.576;10.990;2023-06-05T01:41:39;13.80;68.10
3330;DHT22;1677;49.576;10.990;2023-06-05T01:44:06;13.90;69.20
3330;DHT22;1677;49.576;10.990;2023-06-05T01:46:33;13.70;69.70
3330;DHT22;1677;49.576;10.990;2023-06-05T01:49:00;13.60;70.50
3330;DHT22;1677;49.576;10.990;2023-06-05T01:51:28;13.40;72.30
3330;DHT22;1677;49.576;10.990;2023-06-05T01:53:53;13.30;74.80
3330;DHT22;1677;49.576;10.990;2023-06-05T01:56:19;13.20;75.40
3330;DHT22;1677;49.576;10.990;2023-06-05T01:58:46;13.10;76.00
3330;DHT22;1677;49.576;10.990;2023-06-05T02:01:12;13.20;75.80
3330;DHT22;1677;49.576;10.990;2023-06-05T02:03:39;13.50;74.20
3330;DHT22;1677;49.576;10.990;2023-06-05T02:06:05;13.90;72.70
3330;DHT22;1677;49.576;10.990;2023-06-05T02:08:31;13.80;72.20
3330;DHT22;1677;49.576;10.990;2023-06-05T02:10:57;13.60;72.40
3330;DHT22;1677;49.576;10.990;2023-06-05T02:13:22;13.50;72.10
3330;DHT22;1677;49.576;10.990;2023-06-05T02:15:50;13.30;73.70
3330;DHT22;1677;49.576;10.990;2023-06-05T02:18:21;13.10;74.60
3330;DHT22;1677;49.576;10.990;2023-06-05T02:20:53;13.10;75.20
3330;DHT22;1677;49.576;10.990;2023-06-05T02:23:20;13.10;75.70
3330;DHT22;1677;49.576;10.990;2023-06-05T02:25:46;13.20;74.40
3330;DHT22;1677;49.576;10.990;2023-06-05T02:28:11;13.10;75.70
3330;DHT22;1677;49.576;10.990;2023-06-05T02:30:37;12.90;76.00
3330;DHT22;1677;49.576;10.990;2023-06-05T02:33:02;12.90;76.60
3330;DHT22;1677;49.576;10.990;2023-06-05T02:35:29;12.80;77.60
3330;DHT22;1677;49.576;10.990;2023-06-05T02:37:55;13.00;77.10
3330;DHT22;1677;49.576;10.990;2023-06-05T02:40:22;12.90;76.40
3330;DHT22;1677;49.576;10.990;2023-06-05T02:42:47;12.80;77.10
3330;DHT22;1677;49.576;10.990;2023-06-05T02:45:13;12.80;78.00
3330;DHT22;1677;49.576;10.990;2023-06-05T02:47:38;12.70;79.00
3330;DHT22;1677;49.576;10.990;2023-06-05T02:50:06;12.60;78.80
3330;DHT22;1677;49.576;10.990;2023-06-05T02:52:31;12.60;79.30
3330;DHT22;1677;49.576;10.990;2023-06-05T02:55:01;12.60;79.10
3330;DHT22;1677;49.576;10.990;2023-06-05T02:57:27;12.60;79.30
3330;DHT22;1677;49.576;10.990;2023-06-05T02:59:53;12.50;81.20
3330;DHT22;1677;49.576;10.990;2023-06-05T03:02:20;12.40;82.10
3330;DHT22;1677;49.576;10.990;2023-06-05T03:04:46;12.50;82.20
3330;DHT22;1677;49.576;10.990;2023-06-05T03:07:14;12.40;83.00
3330;DHT22;1677;49.576;10.990;2023-06-05T03:09:40;12.50;83.60
3330;DHT22;1677;49.576;10.990;2023-06-05T03:12:06;12.40;84.50
3330;DHT22;1677;49.576;10.990;2023-06-05T03:14:31;12.40;84.90
3330;DHT22;1677;49.576;10.990;2023-06-05T03:16:57;12.30;85.60
3330;DHT22;1677;49.576;10.990;2023-06-05T03:19:24;12.50;86.60
3330;DHT22;1677;49.576;10.990;2023-06-05T03:21:50;12.50;87.30
3330;DHT22;1677;49.576;10.990;2023-06-05T03:24:16;12.50;87.60
3330;DHT22;1677;49.576;10.990;2023-06-05T03:26:42;12.60;88.30
3330;DHT22;1677;49.576;10.990;2023-06-05T03:29:10;12.60;88.10
3330;DHT22;1677;49.576;10.990;2023-06-05T03:31:36;12.50;89.00
3330;DHT22;1677;49.576;10.990;2023-06-05T03:34:02;12.40;89.20
3330;DHT22;1677;49.576;10.990;2023-06-05T03:36:32;12.70;90.30
3330;DHT22;1677;49.576;10.990;2023-06-05T03:39:03;12.60;89.10
3330;DHT22;1677;49.576;10.990;2023-06-05T03:41:28;12.60;90.00
3330;DHT22;1677;49.576;10.990;2023-06-05T03:43:54;12.60;90.20
3330;DHT22;1677;49.576;10.990;2023-06-05T03:46:20;12.50;90.70
3330;DHT22;1677;49.576;10.990;2023-06-05T03:48:47;12.60;90.60
3330;DHT22;1677;49.576;10.990;2023-06-05T03:51:14;12.60;90.70
3330;DHT22;1677;49.576;10.990;2023-06-05T03:53:44;12.70;90.50
3330;DHT22;1677;49.576;10.990;2023-06-05T03:56:10;12.80;90.20
3330;DHT22;1677;49.576;10.990;2023-06-05T03:58:36;12.90;90.10
3330;DHT22;1677;49.576;10.990;2023-06-05T04:01:03;12.90;90.30
3330;DHT22;1677;49.576;10.990;2023-06-05T04:03:29;12.80;90.50
3330;DHT22;1677;49.576;10.990;2023-06-05T04:05:54;13.00;90.40
3330;DHT22;1677;49.576;10.990;2023-06-05T04:08:20;12.90;90.60
3330;DHT22;1677;49.576;10.990;2023-06-05T04:10:45;13.00;90.30
3330;DHT22;1677;49.576;10.990;2023-06-05T04:13:11;13.10;90.40
3330;DHT22;1677;49.576;10.990;2023-06-05T04:15:37;13.00;90.30
3330;DHT22;1677;49.576;10.990;2023-06-05T04:18:02;13.10;90.40
3330;DHT22;1677;49.576;10.990;2023-06-05T04:20:29;13.00;90.70
3330;DHT22;1677;49.576;10.990;2023-06-05T04:22:54;13.20;90.30
3330;DHT22;1677;49.576;10.990;2023-06-05T04:25:20;13.10;90.70
3330;DHT22;1677;49.576;10.990;2023-06-05T04:27:48;13.20;90.60
3330;DHT22;1677;49.576;10.990;2023-06-05T04:30:15;13.20;90.40
3330;DHT22;1677;49.576;10.990;2023-06-05T04:32:41;13.30;89.50
3330;DHT22;1677;49.576;10.990;2023-06-05T04:35:11;13.40;89.20
3330;DHT22;1677;49.576;10.990;2023-06-05T04:37:37;13.40;89.50
3330;DHT22;1677;49.576;10.990;2023-06-05T04:40:04;13.60;88.80
3330;DHT22;1677;49.576;10.990;2023-06-05T04:42:34;13.70;89.10
3330;DHT22;1677;49.576;10.990;2023-06-05T04:45:02;13.70;89.30
3330;DHT22;1677;49.576;10.990;2023-06-05T04:47:29;14.00;88.40
3330;DHT22;1677;49.576;10.990;2023-06-05T04:49:57;14.20;86.10
3330;DHT22;1677;49.576;10.990;2023-06-05T04:52:23;14.30;85.60
3330;DHT22;1677;49.576;10.990;2023-06-05T04:54:49;14.60;83.50
3330;DHT22;1677;49.576;10.990;2023-06-05T04:57:16;14.60;83.80
3330;DHT22;1677;49.576;10.990;2023-06-05T04:59:43;14.50;85.00
3330;DHT22;1677;49.576;10.990;2023-06-05T05:02:08;14.60;82.30
3330;DHT22;1677;49.576;10.990;2023-06-05T05:04:34;14.80;81.20
3330;DHT22;1677;49.576;10.990;2023-06-05T05:07:00;15.00;80.50
3330;DHT22;1677;49.576;10.990;2023-06-05T05:09:32;14.90;80.70
3330;DHT22;1677;49.576;10.990;2023-06-05T05:11:58;14.90;79.90
3330;DHT22;1677;49.576;10.990;2023-06-05T05:14:25;15.00;79.90
3330;DHT22;1677;49.576;10.990;2023-06-05T05:16:54;15.20;78.60
3330;DHT22;1677;49.576;10.990;2023-06-05T05:19:20;15.40;78.30
3330;DHT22;1677;49.576;10.990;2023-06-05T05:21:47;15.50;77.50
3330;DHT22;1677;49.576;10.990;2023-06-05T05:24:14;15.60;77.10
3330;DHT22;1677;49.576;10.990;2023-06-05T05:26:39;15.90;76.70
3330;DHT22;1677;49.576;10.990;2023-06-05T05:29:05;16.10;75.50
3330;DHT22;1677;49.576;10.990;2023-06-05T05:31:31;16.20;74.60
3330;DHT22;1677;49.576;10.990;2023-06-05T05:33:57;16.30;73.70
3330;DHT22;1677;49.576;10.990;2023-06-05T05:36:24;16.30;72.60
3330;DHT22;1677;49.576;10.990;2023-06-05T05:38:49;16.50;74.10
3330;DHT22;1677;49.576;10.990;2023-06-05T05:41:15;16.50;74.50
3330;DHT22;1677;49.576;10.990;2023-06-05T05:43:41;16.60;72.10
3330;DHT22;1677;49.576;10.990;2023-06-05T05:46:07;16.90;71.80
3330;DHT22;1677;49.576;10.990;2023-06-05T05:48:35;17.00;70.50
3330;DHT22;1677;49.576;10.990;2023-06-05T05:51:01;17.10;70.20
3330;DHT22;1677;49.576;10.990;2023-06-05T05:53:27;17.20;70.50
3330;DHT22;1677;49.576;10.990;2023-06-05T05:55:52;17.30;70.00
3330;DHT22;1677;49.576;10.990;2023-06-05T05:58:19;17.20;68.90
3330;DHT22;1677;49.576;10.990;2023-06-05T06:00:45;17.30;69.80
3330;DHT22;1677;49.576;10.990;2023-06-05T06:03:11;17.50;70.20
3330;DHT22;1677;49.576;10.990;2023-06-05T06:05:36;17.70;68.90
3330;DHT22;1677;49.576;10.990;2023-06-05T06:08:02;17.80;67.60
3330;DHT22;1677;49.576;10.990;2023-06-05T06:10:29;17.90;65.60
3330;DHT22;1677;49.576;10.990;2023-06-05T06:12:56;18.10;66.80
3330;DHT22;1677;49.576;10.990;2023-06-05T06:15:22;18.20;66.40
3330;DHT22;1677;49.576;10.990;2023-06-05T06:17:47;18.40;65.00
3330;DHT22;1677;49.576;10.990;2023-06-05T06:20:13;18.50;65.30
3330;DHT22;1677;49.576;10.990;2023-06-05T06:22:39;18.60;64.40
3330;DHT22;1677;49.576;10.990;2023-06-05T06:25:06;18.80;64.70
3330;DHT22;1677;49.576;10.990;2023-06-05T06:27:32;18.90;62.70
3330;DHT22;1677;49.576;10.990;2023-06-05T06:29:58;19.00;63.40
3330;DHT22;1677;49.576;10.990;2023-06-05T06:32:24;19.10;62.70
3330;DHT22;1677;49.576;10.990;2023-06-05T06:34:52;19.20;61.90
3330;DHT22;1677;49.576;10.990;2023-06-05T06:37:19;19.40;62.70
3330;DHT22;1677;49.576;10.990;2023-06-05T06:39:46;19.60;62.40
3330;DHT22;1677;49.576;10.990;2023-06-05T06:42:12;19.60;61.60
3330;DHT22;1677;49.576;10.990;2023-06-05T06:44:40;19.70;62.10
3330;DHT22;1677;49.576;10.990;2023-06-05T06:47:07;19.90;61.40
3330;DHT22;1677;49.576;10.990;2023-06-05T06:49:34;20.20;61.70
3330;DHT22;1677;49.576;10.990;2023-06-05T06:52:01;20.40;59.80
3330;DHT22;1677;49.576;10.990;2023-06-05T06:54:27;20.50;60.40
3330;DHT22;1677;49.576;10.990;2023-06-05T06:56:55;20.60;59.10
3330;DHT22;1677;49.576;10.990;2023-06-05T06:59:20;20.70;58.80
3330;DHT22;1677;49.576;10.990;2023-06-05T07:01:53;20.80;58.40
3330;DHT22;1677;49.576;10.990;2023-06-05T07:04:32;20.80;57.10
3330;DHT22;1677;49.576;10.990;2023-06-05T07:07:00;21.10;55.00
3330;DHT22;1677;49.576;10.990;2023-06-05T07:09:25;21.20;55.20
3330;DHT22;1677;49.576;10.990;2023-06-05T07:11:53;21.50;56.00
3330;DHT22;1677;49.576;10.990;2023-06-05T07:14:19;21.70;55.00
3330;DHT22;1677;49.576;10.990;2023-06-05T07:16:45;21.80;56.10
3330;DHT22;1677;49.576;10.990;2023-06-05T07:19:12;22.00;55.50
3330;DHT22;1677;49.576;10.990;2023-06-05T07:21:37;22.20;53.40
3330;DHT22;1677;49.576;10.990;2023-06-05T07:24:04;22.40;50.40
3330;DHT22;1677;49.576;10.990;2023-06-05T07:26:30;22.40;50.20
3330;DHT22;1677;49.576;10.990;2023-06-05T07:28:55;22.40;50.80
3330;DHT22;1677;49.576;10.990;2023-06-05T07:31:21;22.60;50.20
3330;DHT22;1677;49.576;10.990;2023-06-05T07:33:47;22.80;49.80
3330;DHT22;1677;49.576;10.990;2023-06-05T07:36:13;23.00;51.10
3330;DHT22;1677;49.576;10.990;2023-06-05T07:38:39;23.00;51.40
3330;DHT22;1677;49.576;10.990;2023-06-05T07:41:08;23.20;50.30
3330;DHT22;1677;49.576;10.990;2023-06-05T07:43:34;23.30;51.10
3330;DHT22;1677;49.576;10.990;2023-06-05T07:45:59;23.50;51.40
3330;DHT22;1677;49.576;10.990;2023-06-05T07:48:25;23.80;51.40
3330;DHT22;1677;49.576;10.990;2023-06-05T07:50:51;24.10;51.60
3330;DHT22;1677;49.576;10.990;2023-06-05T07:53:17;24.30;52.90
3330;DHT22;1677;49.576;10.990;2023-06-05T07:55:42;24.50;53.70
3330;DHT22;1677;49.576;10.990;2023-06-05T07:58:08;24.30;52.50
3330;DHT22;1677;49.576;10.990;2023-06-05T08:00:33;24.30;51.90
3330;DHT22;1677;49.576;10.990;2023-06-05T08:02:59;24.50;52.50
3330;DHT22;1677;49.576;10.990;2023-06-05T08:05:25;24.70;52.40
3330;DHT22;1677;49.576;10.990;2023-06-05T08:07:51;24.90;51.50
3330;DHT22;1677;49.576;10.990;2023-06-05T08:10:17;24.60;50.00
3330;DHT22;1677;49.576;10.990;2023-06-05T08:12:44;24.70;51.80
3330;DHT22;1677;49.576;10.990;2023-06-05T08:15:09;24.90;50.90
3330;DHT22;1677;49.576;10.990;2023-06-05T08:17:35;25.40;51.30
3330;DHT22;1677;49.576;10.990;2023-06-05T08:20:01;25.60;49.10
3330;DHT22;1677;49.576;10.990;2023-06-05T08:22:27;25.60;48.60
3330;DHT22;1677;49.576;10.990;2023-06-05T08:24:54;26.10;49.20
3330;DHT22;1677;49.576;10.990;2023-06-05T08:27:21;26.50;48.60
3330;DHT22;1677;49.576;10.990;2023-06-05T08:29:46;26.40;46.20
3330;DHT22;1677;49.576;10.990;2023-06-05T08:32:12;26.40;46.70
3330;DHT22;1677;49.576;10.990;2023-06-05T08:34:38;26.50;48.00
3330;DHT22;1677;49.576;10.990;2023-06-05T08:37:03;26.80;47.30
3330;DHT22;1677;49.576;10.990;2023-06-05T08:39:29;27.00;46.90
3330;DHT22;1677;49.576;10.990;2023-06-05T08:42:01;27.00;46.80
3330;DHT22;1677;49.576;10.990;2023-06-05T08:44:29;27.30;45.40
3330;DHT22;1677;49.576;10.990;2023-06-05T08:47:00;27.10;45.80
3330;DHT22;1677;49.576;10.990;2023-06-05T08:49:27;27.00;45.80
3330;DHT22;1677;49.576;10.990;2023-06-05T08:52:01;27.10;46.20
3330;DHT22;1677;49.576;10.990;2023-06-05T08:54:39;27.20;44.60
3330;DHT22;1677;49.576;10.990;2023-06-05T08:57:07;27.60;45.80
3330;DHT22;1677;49.576;10.990;2023-06-05T08:59:33;27.60;43.60
3330;DHT22;1677;49.576;10.990;2023-06-05T09:02:00;27.60;43.90
3330;DHT22;1677;49.576;10.990;2023-06-05T09:04:25;27.90;43.90
3330;DHT22;1677;49.576;10.990;2023-06-05T09:06:55;27.70;43.70
3330;DHT22;1677;49.576;10.990;2023-06-05T09:09:21;27.60;43.10
3330;DHT22;1677;49.576;10.990;2023-06-05T09:11:47;27.60;43.60
3330;DHT22;1677;49.576;10.990;2023-06-05T09:14:13;27.30;42.40
3330;DHT22;1677;49.576;10.990;2023-06-05T09:16:41;27.30;42.60
3330;DHT22;1677;49.576;10.990;2023-06-05T09:19:11;27.60;43.50
3330;DHT22;1677;49.576;10.990;2023-06-05T09:21:37;27.70;43.50
3330;DHT22;1677;49.576;10.990;2023-06-05T09:27:01;27.80;43.40
3330;DHT22;1677;49.576;10.990;2023-06-05T09:29:32;28.00;43.40
3330;DHT22;1677;49.576;10.990;2023-06-05T09:31:59;28.30;43.00
3330;DHT22;1677;49.576;10.990;2023-06-05T09:34:30;28.60;41.50
3330;DHT22;1677;49.576;10.990;2023-06-05T09:36:57;28.90;42.20
3330;DHT22;1677;49.576;10.990;2023-06-05T09:39:23;28.90;42.40
3330;DHT22;1677;49.576;10.990;2023-06-05T09:41:53;29.10;42.00
3330;DHT22;1677;49.576;10.990;2023-06-05T09:44:20;29.00;41.10
3330;DHT22;1677;49.576;10.990;2023-06-05T09:47:02;29.00;41.40
3330;DHT22;1677;49.576;10.990;2023-06-05T09:49:53;28.10;42.50
3330;DHT22;1677;49.576;10.990;2023-06-05T09:52:18;28.10;43.60
3330;DHT22;1677;49.576;10.990;2023-06-05T09:54:45;27.90;43.90
3330;DHT22;1677;49.576;10.990;2023-06-05T09:57:12;28.50;43.90
3330;DHT22;1677;49.576;10.990;2023-06-05T09:59:55;29.20;43.50
3330;DHT22;1677;49.576;10.990;2023-06-05T10:02:27;29.00;41.90
3330;DHT22;1677;49.576;10.990;2023-06-05T10:05:02;28.80;42.20
3330;DHT22;1677;49.576;10.990;2023-06-05T10:07:30;28.90;43.20
3330;DHT22;1677;49.576;10.990;2023-06-05T10:09:57;29.20;42.20
3330;DHT22;1677;49.576;10.990;2023-06-05T10:12:24;29.10;41.80
3330;DHT22;1677;49.576;10.990;2023-06-05T10:14:52;29.60;42.50
3330;DHT22;1677;49.576;10.990;2023-06-05T10:17:21;30.00;42.30
3330;DHT22;1677;49.576;10.990;2023-06-05T10:19:47;30.10;40.90
3330;DHT22;1677;49.576;10.990;2023-06-05T10:22:13;29.50;40.90
3330;DHT22;1677;49.576;10.990;2023-06-05T10:24:44;29.40;41.90
3330;DHT22;1677;49.576;10.990;2023-06-05T10:34:00;30.20;40.40
3330;DHT22;1677;49.576;10.990;2023-06-05T10:36:05;30.50;39.10
3330;DHT22;1677;49.576;10.990;2023-06-05T10:38:35;31.00;38.90
3330;DHT22;1677;49.576;10.990;2023-06-05T10:41:04;30.90;38.80
3330;DHT22;1677;49.576;10.990;2023-06-05T10:43:33;31.40;39.10
3330;DHT22;1677;49.576;10.990;2023-06-05T10:46:01;31.10;37.70
3330;DHT22;1677;49.576;10.990;2023-06-05T10:57:04;31.50;39.20
3330;DHT22;1677;49.576;10.990;2023-06-05T10:59:37;31.60;38.10
3330;DHT22;1677;49.576;10.990;2023-06-05T11:15:34;29.30;41.40
3330;DHT22;1677;49.576;10.990;2023-06-05T11:18:30;29.30;40.50
3330;DHT22;1677;49.576;10.990;2023-06-05T11:20:57;28.80;42.20
3330;DHT22;1677;49.576;10.990;2023-06-05T11:23:23;28.90;41.90
3330;DHT22;1677;49.576;10.990;2023-06-05T11:25:54;29.60;41.60
3330;DHT22;1677;49.576;10.990;2023-06-05T11:28:41;30.10;40.30
3330;DHT22;1677;49.576;10.990;2023-06-05T11:31:07;30.20;39.40
3330;DHT22;1677;49.576;10.990;2023-06-05T11:33:33;30.10;40.30
3330;DHT22;1677;49.576;10.990;2023-06-05T11:36:04;29.90;40.60
3330;DHT22;1677;49.576;10.990;2023-06-05T11:38:31;30.60;41.20
3330;DHT22;1677;49.576;10.990;2023-06-05T11:40:56;30.80;39.70
3330;DHT22;1677;49.576;10.990;2023-06-05T11:43:22;30.10;39.90
3330;DHT22;1677;49.576;10.990;2023-06-05T11:45:56;29.80;40.50
3330;DHT22;1677;49.576;10.990;2023-06-05T11:48:23;29.90;42.00
3330;DHT22;1677;49.576;10.990;2023-06-05T11:51:04;31.00;38.90
3330;DHT22;1677;49.576;10.990;2023-06-05T11:53:32;31.40;38.90
3330;DHT22;1677;49.576;10.990;2023-06-05T11:55:58;32.00;37.60
3330;DHT22;1677;49.576;10.990;2023-06-05T11:58:31;32.10;37.50
3330;DHT22;1677;49.576;10.990;2023-06-05T12:01:13;33.00;37.80
3330;DHT22;1677;49.576;10.990;2023-06-05T12:03:41;32.20;36.90
3330;DHT22;1677;49.576;10.990;2023-06-05T12:06:07;31.70;37.70
3330;DHT22;1677;49.576;10.990;2023-06-05T12:08:34;31.20;38.80
3330;DHT22;1677;49.576;10.990;2023-06-05T12:11:01;30.20;39.70
3330;DHT22;1677;49.576;10.990;2023-06-05T12:13:57;29.10;41.50
3330;DHT22;1677;49.576;10.990;2023-06-05T12:16:39;29.50;42.80
3330;DHT22;1677;49.576;10.990;2023-06-05T12:19:17;29.90;42.60
3330;DHT22;1677;49.576;10.990;2023-06-05T12:21:48;29.80;42.20
3330;DHT22;1677;49.576;10.990;2023-06-05T12:24:16;30.40;41.60
3330;DHT22;1677;49.576;10.990;2023-06-05T12:26:55;30.70;40.00
3330;DHT22;1677;49.576;10.990;2023-06-05T12:29:27;30.60;38.70
3330;DHT22;1677;49.576;10.990;2023-06-05T12:31:54;29.80;40.40
3330;DHT22;1677;49.576;10.990;2023-06-05T12:34:46;29.10;41.80
3330;DHT22;1677;49.576;10.990;2023-06-05T12:37:25;28.90;42.70
3330;DHT22;1677;49.576;10.990;2023-06-05T12:39:57;29.50;42.60
3330;DHT22;1677;49.576;10.990;2023-06-05T12:42:24;29.80;42.00
3330;DHT22;1677;49.576;10.990;2023-06-05T12:44:50;29.40;41.60
3330;DHT22;1677;49.576;10.990;2023-06-05T12:47:16;28.70;42.70
3330;DHT22;1677;49.576;10.990;2023-06-05T12:49:41;28.40;43.20
3330;DHT22;1677;49.576;10.990;2023-06-05T12:52:08;28.40;43.80
3330;DHT22;1677;49.576;10.990;2023-06-05T12:54:36;28.90;43.30
3330;DHT22;1677;49.576;10.990;2023-06-05T12:57:02;29.20;43.30
3330;DHT22;1677;49.576;10.990;2023-06-05T12:59:28;29.50;42.30
3330;DHT22;1677;49.576;10.990;2023-06-05T13:01:53;29.70;42.10
3330;DHT22;1677;49.576;10.990;2023-06-05T13:04:19;29.50;42.50
3330;DHT22;1677;49.576;10.990;2023-06-05T13:06:44;29.30;42.50
3330;DHT22;1677;49.576;10.990;2023-06-05T13:09:12;29.00;43.00
3330;DHT22;1677;49.576;10.990;2023-06-05T13:11:37;28.80;43.00
3330;DHT22;1677;49.576;10.990;2023-06-05T13:14:03;28.30;43.90
3330;DHT22;1677;49.576;10.990;2023-06-05T13:16:29;28.00;43.90
3330;DHT22;1677;49.576;10.990;2023-06-05T13:18:55;28.10;44.00
3330;DHT22;1677;49.576;10.990;2023-06-05T13:21:21;28.50;43.40
3330;DHT22;1677;49.576;10.990;2023-06-05T13:23:46;28.50;43.90
3330;DHT22;1677;49.576;10.990;2023-06-05T13:26:12;28.30;44.20
3330;DHT22;1677;49.576;10.990;2023-06-05T13:28:37;28.50;44.30
3330;DHT22;1677;49.576;10.990;2023-06-05T13:31:03;28.70;43.90
3330;DHT22;1677;49.576;10.990;2023-06-05T13:33:29;28.80;43.20
3330;DHT22;1677;49.576;10.990;2023-06-05T13:35:55;28.90;42.70
3330;DHT22;1677;49.576;10.990;2023-06-05T13:38:21;28.80;43.60
3330;DHT22;1677;49.576;10.990;2023-06-05T13:40:48;28.80;42.60
3330;DHT22;1677;49.576;10.990;2023-06-05T13:43:15;28.90;42.70
3330;DHT22;1677;49.576;10.990;2023-06-05T13:45:41;29.00;43.20
3330;DHT22;1677;49.576;10.990;2023-06-05T13:48:07;29.10;42.90
3330;DHT22;1677;49.576;10.990;2023-06-05T13:50:33;29.00;42.70
3330;DHT22;1677;49.576;10.990;2023-06-05T13:52:58;28.90;42.80
3330;DHT22;1677;49.576;10.990;2023-06-05T13:55:24;28.70;43.30
3330;DHT22;1677;49.576;10.990;2023-06-05T13:57:50;29.10;43.20
3330;DHT22;1677;49.576;10.990;2023-06-05T14:00:16;29.40;43.40
3330;DHT22;1677;49.576;10.990;2023-06-05T14:02:41;29.80;42.20
3330;DHT22;1677;49.576;10.990;2023-06-05T14:05:07;29.80;41.60
3330;DHT22;1677;49.576;10.990;2023-06-05T14:07:34;29.70;40.00
3330;DHT22;1677;49.576;10.990;2023-06-05T14:09:59;29.30;42.00
3330;DHT22;1677;49.576;10.990;2023-06-05T14:12:25;29.20;41.70
3330;DHT22;1677;49.576;10.990;2023-06-05T14:14:51;29.10;42.30
3330;DHT22;1677;49.576;10.990;2023-06-05T14:17:16;29.10;42.40
3330;DHT22;1677;49.576;10.990;2023-06-05T14:19:42;28.90;42.80
3330;DHT22;1677;49.576;10.990;2023-06-05T14:22:08;28.70;42.90
3330;DHT22;1677;49.576;10.990;2023-06-05T14:24:34;28.60;42.70
3330;DHT22;1677;49.576;10.990;2023-06-05T14:26:59;28.50;42.50
3330;DHT22;1677;49.576;10.990;2023-06-05T14:29:25;28.40;41.90
3330;DHT22;1677;49.576;10.990;2023-06-05T14:31:50;28.10;42.50
3330;DHT22;1677;49.576;10.990;2023-06-05T14:34:16;28.00;42.60
3330;DHT22;1677;49.576;10.990;2023-06-05T14:36:42;27.60;42.40
3330;DHT22;1677;49.576;10.990;2023-06-05T14:39:15;27.40;42.70
3330;DHT22;1677;49.576;10.990;2023-06-05T14:41:42;27.60;43.50
3330;DHT22;1677;49.576;10.990;2023-06-05T14:44:08;27.80;44.00
3330;DHT22;1677;49.576;10.990;2023-06-05T14:46:33;27.90;44.80
3330;DHT22;1677;49.576;10.990;2023-06-05T14:48:59;27.90;44.10
3330;DHT22;1677;49.576;10.990;2023-06-05T14:51:24;27.70;45.50
3330;DHT22;1677;49.576;10.990;2023-06-05T14:53:50;27.50;45.50
3330;DHT22;1677;49.576;10.990;2023-06-05T14:56:15;26.90;45.90
3330;DHT22;1677;49.576;10.990;2023-06-05T14:58:41;26.60;46.10
3330;DHT22;1677;49.576;10.990;2023-06-05T15:01:07;26.20;45.90
3330;DHT22;1677;49.576;10.990;2023-06-05T15:03:32;26.10;46.70
3330;DHT22;1677;49.576;10.990;2023-06-05T15:05:58;26.10;46.10
3330;DHT22;1677;49.576;10.990;2023-06-05T15:08:23;26.10;46.40
3330;DHT22;1677;49.576;10.990;2023-06-05T15:10:49;26.00;47.10
3330;DHT22;1677;49.576;10.990;2023-06-05T15:13:15;25.90;47.00
3330;DHT22;1677;49.576;10.990;2023-06-05T15:15:41;25.90;46.90
3330;DHT22;1677;49.576;10.990;2023-06-05T15:18:06;26.20;47.10
3330;DHT22;1677;49.576;10.990;2023-06-05T15:20:33;26.40;47.60
3330;DHT22;1677;49.576;10.990;2023-06-05T15:22:59;26.70;46.90
3330;DHT22;1677;49.576;10.990;2023-06-05T15:25:25;26.80;47.50
3330;DHT22;1677;49.576;10.990;2023-06-05T15:27:52;27.00;46.00
3330;DHT22;1677;49.576;10.990;2023-06-05T15:30:19;27.00;46.30
3330;DHT22;1677;49.576;10.990;2023-06-05T15:32:45;27.00;46.50
3330;DHT22;1677;49.576;10.990;2023-06-05T15:35:11;27.00;46.00
3330;DHT22;1677;49.576;10.990;2023-06-05T15:37:37;27.00;46.70
3330;DHT22;1677;49.576;10.990;2023-06-05T15:40:03;26.80;46.10
3330;DHT22;1677;49.576;10.990;2023-06-05T15:42:34;26.50;46.30
3330;DHT22;1677;49.576;10.990;2023-06-05T15:45:07;26.10;47.50
3330;DHT22;1677;49.576;10.990;2023-06-05T15:47:33;25.80;48.60
3330;DHT22;1677;49.576;10.990;2023-06-05T15:49:59;25.50;48.90
3330;DHT22;1677;49.576;10.990;2023-06-05T15:52:25;24.80;50.10
3330;DHT22;1677;49.576;10.990;2023-06-05T15:54:55;24.60;50.80
3330;DHT22;1677;49.576;10.990;2023-06-05T15:57:20;24.30;51.10
3330;DHT22;1677;49.576;10.990;2023-06-05T15:59:46;24.30;51.70
3330;DHT22;1677;49.576;10.990;2023-06-05T16:02:12;24.40;51.80
3330;DHT22;1677;49.576;10.990;2023-06-05T16:04:37;24.40;51.70
3330;DHT22;1677;49.576;10.990;2023-06-05T16:07:03;24.20;51.60
3330;DHT22;1677;49.576;10.990;2023-06-05T16:09:29;24.10;52.70
3330;DHT22;1677;49.576;10.990;2023-06-05T16:11:54;23.80;53.90
3330;DHT22;1677;49.576;10.990;2023-06-05T16:14:20;23.50;55.40
3330;DHT22;1677;49.576;10.990;2023-06-05T16:16:45;23.30;56.20